This is the latest recevied weather packets stored in our database for station/object KGRR-WX. If no packets are shown the sender has not sent any weather packets the latest 10 day(s).
| Time | Temp. | Humidity | Pressure | Rain* | Wind** | Luminosity | Snow |
|---|---|---|---|---|---|---|---|
| 1778137224 | 4.44° C | 70% | 984.8 hPa | 0 mm | - | - | - |
| 1778136308 | 5° C | 68% | 985.6 hPa | 0 mm | - | - | - |
| 1778135415 | 4.44° C | 68% | 985.6 hPa | 0 mm | - | - | - |
| 1778134508 | 4.44° C | 68% | 985.6 hPa | 0 mm | - | - | - |
| 1778133619 | 5° C | 68% | 985.6 hPa | 0 mm | - | - | - |
| 1778132708 | 5° C | 68% | 986.1 hPa | 0 mm | - | - | - |
| 1778131823 | 6.11° C | 68% | 986.1 hPa | 0 mm | - | - | - |
| 1778130908 | 5.56° C | 68% | 986.1 hPa | 0 mm | - | - | - |
| 1778130027 | 6.11° C | 66% | 985.1 hPa | 0 mm | - | - | - |
| 1778129108 | 6.67° C | 62% | 986 hPa | 0 mm | - | - | - |
| 1778128215 | 6.67° C | 62% | 986 hPa | 0 mm | - | - | - |
| 1778127307 | 6.67° C | 62% | 986 hPa | 0 mm | - | - | - |
| 1778126427 | 6.67° C | 62% | 986 hPa | 0 mm | - | - | - |
| 1778125507 | 6.67° C | 51% | 986.9 hPa | 0 mm | - | - | - |
| 1778124614 | 6.11° C | 59% | 985 hPa | 0 mm | - | - | - |
| 1778123707 | 5.56° C | 59% | 985 hPa | 0 mm | - | - | - |
| 1778122827 | 6.11° C | 59% | 985 hPa | 0 mm | - | - | - |
| 1778121907 | 6.11° C | 53% | 986.1 hPa | 0 mm | - | - | - |
| 1778121014 | 6.67° C | 54% | 985.8 hPa | 0 mm | - | - | - |
| 1778120106 | 6.67° C | 54% | 985.7 hPa | 0 mm | - | - | - |
| 1778119217 | 6.67° C | 54% | 985.7 hPa | 0 mm | - | - | - |
| 1778118306 | 6.67° C | 47% | 985.5 hPa | 0 mm | - | - | - |
| 1778117414 | 6.67° C | 47% | 985.5 hPa | 0 mm | - | - | - |
| 1778116506 | 7.78° C | 47% | 985.5 hPa | 0 mm | - | - | - |
| 1778115624 | 7.78° C | 47% | 985.5 hPa | 0 mm | - | - | - |
* Rain latest hour (hover to see other rain measurements)
** Current wind speed in m/s (hover to see current wind gust speed)